sensor_id;sensor_type;location;lat;lon;timestamp;P1;durP1;ratioP1;P2;durP2;ratioP2
21636;SDS011;10980;49.596;6.142;2022-07-23T00:01:45;16.88;;;11.27;;
21636;SDS011;10980;49.596;6.142;2022-07-23T00:05:09;17.27;;;11.80;;
21636;SDS011;10980;49.596;6.142;2022-07-23T00:08:31;19.05;;;11.55;;
21636;SDS011;10980;49.596;6.142;2022-07-23T00:11:53;17.60;;;12.30;;
21636;SDS011;10980;49.596;6.142;2022-07-23T00:15:15;19.42;;;11.45;;
21636;SDS011;10980;49.596;6.142;2022-07-23T00:18:37;19.52;;;12.80;;
21636;SDS011;10980;49.596;6.142;2022-07-23T00:21:59;18.20;;;12.35;;
21636;SDS011;10980;49.596;6.142;2022-07-23T00:25:21;18.20;;;11.38;;
21636;SDS011;10980;49.596;6.142;2022-07-23T00:28:50;16.45;;;10.93;;
21636;SDS011;10980;49.596;6.142;2022-07-23T00:32:12;18.30;;;11.77;;
21636;SDS011;10980;49.596;6.142;2022-07-23T00:35:44;18.92;;;12.30;;
21636;SDS011;10980;49.596;6.142;2022-07-23T00:39:06;18.45;;;11.45;;
21636;SDS011;10980;49.596;6.142;2022-07-23T00:42:28;16.98;;;11.02;;
21636;SDS011;10980;49.596;6.142;2022-07-23T00:45:52;17.90;;;11.27;;
21636;SDS011;10980;49.596;6.142;2022-07-23T00:49:14;18.83;;;11.05;;
21636;SDS011;10980;49.596;6.142;2022-07-23T00:52:37;14.40;;;11.20;;
21636;SDS011;10980;49.596;6.142;2022-07-23T00:55:59;18.90;;;11.90;;
21636;SDS011;10980;49.596;6.142;2022-07-23T00:59:21;17.95;;;12.40;;
21636;SDS011;10980;49.596;6.142;2022-07-23T01:02:43;17.25;;;12.30;;
21636;SDS011;10980;49.596;6.142;2022-07-23T01:06:07;16.02;;;11.52;;
21636;SDS011;10980;49.596;6.142;2022-07-23T01:09:30;21.38;;;12.23;;
21636;SDS011;10980;49.596;6.142;2022-07-23T01:12:53;18.17;;;12.35;;
21636;SDS011;10980;49.596;6.142;2022-07-23T01:16:15;19.00;;;12.40;;
21636;SDS011;10980;49.596;6.142;2022-07-23T01:19:37;16.70;;;11.70;;
21636;SDS011;10980;49.596;6.142;2022-07-23T01:22:59;19.52;;;12.15;;
21636;SDS011;10980;49.596;6.142;2022-07-23T01:26:21;20.70;;;12.52;;
21636;SDS011;10980;49.596;6.142;2022-07-23T01:29:44;16.90;;;12.63;;
21636;SDS011;10980;49.596;6.142;2022-07-23T01:33:11;17.60;;;12.02;;
21636;SDS011;10980;49.596;6.142;2022-07-23T01:36:36;16.75;;;11.35;;
21636;SDS011;10980;49.596;6.142;2022-07-23T01:39:58;18.05;;;12.98;;
21636;SDS011;10980;49.596;6.142;2022-07-23T01:43:23;19.52;;;13.60;;
21636;SDS011;10980;49.596;6.142;2022-07-23T01:46:47;20.13;;;13.82;;
21636;SDS011;10980;49.596;6.142;2022-07-23T01:50:11;20.20;;;12.65;;
21636;SDS011;10980;49.596;6.142;2022-07-23T01:53:51;22.75;;;14.10;;
21636;SDS011;10980;49.596;6.142;2022-07-23T01:57:13;19.48;;;13.35;;
21636;SDS011;10980;49.596;6.142;2022-07-23T02:00:35;18.65;;;12.68;;
21636;SDS011;10980;49.596;6.142;2022-07-23T02:03:57;20.48;;;12.95;;
21636;SDS011;10980;49.596;6.142;2022-07-23T02:07:19;23.65;;;13.32;;
21636;SDS011;10980;49.596;6.142;2022-07-23T02:10:41;22.95;;;13.88;;
21636;SDS011;10980;49.596;6.142;2022-07-23T02:14:03;19.90;;;13.63;;
21636;SDS011;10980;49.596;6.142;2022-07-23T02:17:25;22.70;;;14.85;;
21636;SDS011;10980;49.596;6.142;2022-07-23T02:20:47;24.25;;;14.35;;
21636;SDS011;10980;49.596;6.142;2022-07-23T02:24:09;22.00;;;14.25;;
21636;SDS011;10980;49.596;6.142;2022-07-23T02:27:34;21.85;;;14.73;;
21636;SDS011;10980;49.596;6.142;2022-07-23T02:30:59;21.50;;;14.68;;
21636;SDS011;10980;49.596;6.142;2022-07-23T02:34:21;22.55;;;15.02;;
21636;SDS011;10980;49.596;6.142;2022-07-23T02:37:44;21.08;;;14.52;;
21636;SDS011;10980;49.596;6.142;2022-07-23T02:41:05;24.00;;;14.55;;
21636;SDS011;10980;49.596;6.142;2022-07-23T02:44:27;24.15;;;14.57;;
21636;SDS011;10980;49.596;6.142;2022-07-23T02:47:50;24.58;;;14.95;;
21636;SDS011;10980;49.596;6.142;2022-07-23T02:51:12;24.60;;;15.52;;
21636;SDS011;10980;49.596;6.142;2022-07-23T02:54:40;24.70;;;15.20;;
21636;SDS011;10980;49.596;6.142;2022-07-23T02:58:05;26.73;;;15.95;;
21636;SDS011;10980;49.596;6.142;2022-07-23T03:01:26;23.42;;;15.57;;
21636;SDS011;10980;49.596;6.142;2022-07-23T03:04:48;25.08;;;15.15;;
21636;SDS011;10980;49.596;6.142;2022-07-23T03:08:11;22.48;;;15.25;;
21636;SDS011;10980;49.596;6.142;2022-07-23T03:11:36;24.48;;;14.95;;
21636;SDS011;10980;49.596;6.142;2022-07-23T03:14:57;23.90;;;15.98;;
21636;SDS011;10980;49.596;6.142;2022-07-23T03:18:21;23.67;;;15.55;;
21636;SDS011;10980;49.596;6.142;2022-07-23T03:21:43;24.83;;;14.98;;
21636;SDS011;10980;49.596;6.142;2022-07-23T03:25:06;28.02;;;15.82;;
21636;SDS011;10980;49.596;6.142;2022-07-23T03:28:29;24.63;;;15.65;;
21636;SDS011;10980;49.596;6.142;2022-07-23T03:31:51;24.50;;;15.30;;
21636;SDS011;10980;49.596;6.142;2022-07-23T03:35:13;23.50;;;14.20;;
21636;SDS011;10980;49.596;6.142;2022-07-23T03:38:45;23.27;;;15.05;;
21636;SDS011;10980;49.596;6.142;2022-07-23T03:42:07;20.55;;;14.60;;
21636;SDS011;10980;49.596;6.142;2022-07-23T03:45:30;23.27;;;15.68;;
21636;SDS011;10980;49.596;6.142;2022-07-23T03:48:52;24.60;;;14.70;;
21636;SDS011;10980;49.596;6.142;2022-07-23T03:52:19;26.25;;;16.10;;
21636;SDS011;10980;49.596;6.142;2022-07-23T03:55:41;23.35;;;14.93;;
21636;SDS011;10980;49.596;6.142;2022-07-23T03:59:03;23.83;;;15.02;;
21636;SDS011;10980;49.596;6.142;2022-07-23T04:02:25;22.00;;;15.15;;
21636;SDS011;10980;49.596;6.142;2022-07-23T04:05:48;26.42;;;14.90;;
21636;SDS011;10980;49.596;6.142;2022-07-23T04:09:10;25.98;;;15.65;;
21636;SDS011;10980;49.596;6.142;2022-07-23T04:12:32;24.95;;;15.35;;
21636;SDS011;10980;49.596;6.142;2022-07-23T04:15:54;24.65;;;15.32;;
21636;SDS011;10980;49.596;6.142;2022-07-23T04:19:15;24.75;;;15.13;;
21636;SDS011;10980;49.596;6.142;2022-07-23T04:22:48;22.88;;;14.50;;
21636;SDS011;10980;49.596;6.142;2022-07-23T04:26:10;22.88;;;15.23;;
21636;SDS011;10980;49.596;6.142;2022-07-23T04:29:39;23.52;;;15.25;;
21636;SDS011;10980;49.596;6.142;2022-07-23T04:33:01;26.70;;;15.90;;
21636;SDS011;10980;49.596;6.142;2022-07-23T04:36:27;21.80;;;15.20;;
21636;SDS011;10980;49.596;6.142;2022-07-23T04:39:49;25.95;;;15.45;;
21636;SDS011;10980;49.596;6.142;2022-07-23T04:43:10;22.48;;;15.38;;
21636;SDS011;10980;49.596;6.142;2022-07-23T04:46:41;26.95;;;16.30;;
21636;SDS011;10980;49.596;6.142;2022-07-23T04:50:03;22.92;;;15.32;;
21636;SDS011;10980;49.596;6.142;2022-07-23T04:53:25;28.65;;;15.50;;
21636;SDS011;10980;49.596;6.142;2022-07-23T04:56:51;29.17;;;16.40;;
21636;SDS011;10980;49.596;6.142;2022-07-23T05:00:13;26.67;;;15.98;;
21636;SDS011;10980;49.596;6.142;2022-07-23T05:03:35;28.23;;;16.55;;
21636;SDS011;10980;49.596;6.142;2022-07-23T05:06:58;28.92;;;17.05;;
21636;SDS011;10980;49.596;6.142;2022-07-23T05:10:20;30.20;;;16.77;;
21636;SDS011;10980;49.596;6.142;2022-07-23T05:13:42;31.73;;;17.95;;
21636;SDS011;10980;49.596;6.142;2022-07-23T05:17:04;29.13;;;16.55;;
21636;SDS011;10980;49.596;6.142;2022-07-23T05:20:26;33.58;;;16.58;;
21636;SDS011;10980;49.596;6.142;2022-07-23T05:23:47;28.08;;;16.85;;
21636;SDS011;10980;49.596;6.142;2022-07-23T05:27:09;30.20;;;17.50;;
21636;SDS011;10980;49.596;6.142;2022-07-23T05:30:33;30.60;;;17.00;;
21636;SDS011;10980;49.596;6.142;2022-07-23T05:33:59;27.80;;;16.35;;
21636;SDS011;10980;49.596;6.142;2022-07-23T05:37:21;33.08;;;18.02;;
21636;SDS011;10980;49.596;6.142;2022-07-23T05:40:43;33.83;;;17.40;;
21636;SDS011;10980;49.596;6.142;2022-07-23T05:44:05;28.23;;;17.58;;
21636;SDS011;10980;49.596;6.142;2022-07-23T05:47:40;32.72;;;18.48;;
21636;SDS011;10980;49.596;6.142;2022-07-23T05:51:08;28.05;;;16.42;;
21636;SDS011;10980;49.596;6.142;2022-07-23T05:54:30;32.95;;;17.40;;
21636;SDS011;10980;49.596;6.142;2022-07-23T05:57:52;30.42;;;18.10;;
21636;SDS011;10980;49.596;6.142;2022-07-23T06:01:13;34.25;;;17.90;;
21636;SDS011;10980;49.596;6.142;2022-07-23T06:04:55;30.48;;;16.70;;
21636;SDS011;10980;49.596;6.142;2022-07-23T06:08:22;37.78;;;17.67;;
21636;SDS011;10980;49.596;6.142;2022-07-23T06:11:44;31.70;;;16.15;;
21636;SDS011;10980;49.596;6.142;2022-07-23T06:15:06;29.08;;;16.58;;
21636;SDS011;10980;49.596;6.142;2022-07-23T06:18:32;30.63;;;16.55;;
21636;SDS011;10980;49.596;6.142;2022-07-23T06:21:54;27.02;;;15.45;;
21636;SDS011;10980;49.596;6.142;2022-07-23T06:25:15;31.25;;;15.48;;
21636;SDS011;10980;49.596;6.142;2022-07-23T06:28:40;27.83;;;15.30;;
21636;SDS011;10980;49.596;6.142;2022-07-23T06:32:02;26.55;;;15.15;;
21636;SDS011;10980;49.596;6.142;2022-07-23T06:35:24;22.73;;;13.35;;
21636;SDS011;10980;49.596;6.142;2022-07-23T06:38:46;25.48;;;14.95;;
21636;SDS011;10980;49.596;6.142;2022-07-23T06:42:10;21.95;;;13.10;;
21636;SDS011;10980;49.596;6.142;2022-07-23T06:45:37;22.10;;;12.88;;
21636;SDS011;10980;49.596;6.142;2022-07-23T06:48:59;24.33;;;14.07;;
21636;SDS011;10980;49.596;6.142;2022-07-23T06:52:23;25.60;;;15.38;;
21636;SDS011;10980;49.596;6.142;2022-07-23T06:55:45;23.17;;;13.85;;
21636;SDS011;10980;49.596;6.142;2022-07-23T06:59:06;20.73;;;13.25;;
21636;SDS011;10980;49.596;6.142;2022-07-23T07:02:28;24.13;;;14.30;;
21636;SDS011;10980;49.596;6.142;2022-07-23T07:05:50;21.05;;;13.13;;
21636;SDS011;10980;49.596;6.142;2022-07-23T07:09:13;18.27;;;10.45;;
21636;SDS011;10980;49.596;6.142;2022-07-23T07:12:34;17.17;;;10.88;;
21636;SDS011;10980;49.596;6.142;2022-07-23T07:15:57;18.58;;;11.27;;
21636;SDS011;10980;49.596;6.142;2022-07-23T07:19:18;23.42;;;13.02;;
21636;SDS011;10980;49.596;6.142;2022-07-23T07:22:40;22.42;;;13.82;;
21636;SDS011;10980;49.596;6.142;2022-07-23T07:26:02;21.88;;;12.75;;
21636;SDS011;10980;49.596;6.142;2022-07-23T07:29:24;23.92;;;14.55;;
21636;SDS011;10980;49.596;6.142;2022-07-23T07:32:45;21.25;;;12.93;;
21636;SDS011;10980;49.596;6.142;2022-07-23T07:36:17;24.65;;;13.48;;
21636;SDS011;10980;49.596;6.142;2022-07-23T07:39:39;26.08;;;13.68;;
21636;SDS011;10980;49.596;6.142;2022-07-23T07:43:01;27.17;;;13.40;;
21636;SDS011;10980;49.596;6.142;2022-07-23T07:46:24;21.30;;;12.80;;
21636;SDS011;10980;49.596;6.142;2022-07-23T07:49:48;19.50;;;11.60;;
21636;SDS011;10980;49.596;6.142;2022-07-23T07:53:10;18.98;;;11.90;;
21636;SDS011;10980;49.596;6.142;2022-07-23T07:56:32;24.02;;;12.43;;
21636;SDS011;10980;49.596;6.142;2022-07-23T07:59:54;18.67;;;11.27;;
21636;SDS011;10980;49.596;6.142;2022-07-23T08:03:17;16.88;;;11.02;;
21636;SDS011;10980;49.596;6.142;2022-07-23T08:06:39;18.80;;;11.63;;
21636;SDS011;10980;49.596;6.142;2022-07-23T08:10:01;26.67;;;11.93;;
21636;SDS011;10980;49.596;6.142;2022-07-23T08:13:22;20.63;;;11.13;;
21636;SDS011;10980;49.596;6.142;2022-07-23T08:16:44;19.23;;;10.30;;
21636;SDS011;10980;49.596;6.142;2022-07-23T08:20:26;15.55;;;9.45;;
21636;SDS011;10980;49.596;6.142;2022-07-23T08:23:49;17.20;;;10.30;;
21636;SDS011;10980;49.596;6.142;2022-07-23T08:27:11;15.20;;;9.05;;
21636;SDS011;10980;49.596;6.142;2022-07-23T08:30:33;15.63;;;9.32;;
21636;SDS011;10980;49.596;6.142;2022-07-23T08:33:56;20.65;;;10.02;;
21636;SDS011;10980;49.596;6.142;2022-07-23T08:37:19;16.17;;;8.88;;
21636;SDS011;10980;49.596;6.142;2022-07-23T08:40:42;17.30;;;9.73;;
21636;SDS011;10980;49.596;6.142;2022-07-23T08:44:11;14.27;;;9.10;;
21636;SDS011;10980;49.596;6.142;2022-07-23T08:47:34;15.35;;;8.77;;
21636;SDS011;10980;49.596;6.142;2022-07-23T08:50:58;20.17;;;9.93;;
21636;SDS011;10980;49.596;6.142;2022-07-23T08:54:22;16.77;;;10.02;;
21636;SDS011;10980;49.596;6.142;2022-07-23T08:57:44;15.30;;;10.02;;
21636;SDS011;10980;49.596;6.142;2022-07-23T09:01:09;19.33;;;9.82;;
21636;SDS011;10980;49.596;6.142;2022-07-23T09:04:31;15.98;;;8.77;;
21636;SDS011;10980;49.596;6.142;2022-07-23T09:08:09;15.57;;;9.38;;
21636;SDS011;10980;49.596;6.142;2022-07-23T09:11:35;12.60;;;8.05;;
21636;SDS011;10980;49.596;6.142;2022-07-23T09:14:57;13.00;;;8.77;;
21636;SDS011;10980;49.596;6.142;2022-07-23T09:18:29;15.93;;;8.25;;
21636;SDS011;10980;49.596;6.142;2022-07-23T09:21:56;13.90;;;8.77;;
21636;SDS011;10980;49.596;6.142;2022-07-23T09:25:48;13.48;;;8.50;;
21636;SDS011;10980;49.596;6.142;2022-07-23T09:32:42;14.95;;;7.38;;
21636;SDS011;10980;49.596;6.142;2022-07-23T09:36:04;8.70;;;6.78;;
21636;SDS011;10980;49.596;6.142;2022-07-23T09:42:55;15.27;;;8.23;;
21636;SDS011;10980;49.596;6.142;2022-07-23T09:46:21;12.55;;;8.68;;
21636;SDS011;10980;49.596;6.142;2022-07-23T09:50:04;10.23;;;8.00;;
21636;SDS011;10980;49.596;6.142;2022-07-23T09:53:29;14.70;;;8.73;;
21636;SDS011;10980;49.596;6.142;2022-07-23T09:56:52;14.57;;;9.50;;
21636;SDS011;10980;49.596;6.142;2022-07-23T10:00:14;16.58;;;8.93;;
21636;SDS011;10980;49.596;6.142;2022-07-23T10:03:36;13.80;;;9.60;;
21636;SDS011;10980;49.596;6.142;2022-07-23T10:07:18;19.15;;;9.38;;
21636;SDS011;10980;49.596;6.142;2022-07-23T10:11:18;14.68;;;8.45;;
21636;SDS011;10980;49.596;6.142;2022-07-23T10:14:47;15.90;;;9.20;;
21636;SDS011;10980;49.596;6.142;2022-07-23T10:18:10;13.68;;;8.10;;
21636;SDS011;10980;49.596;6.142;2022-07-23T10:25:51;12.20;;;7.82;;
21636;SDS011;10980;49.596;6.142;2022-07-23T10:29:42;14.02;;;8.52;;
21636;SDS011;10980;49.596;6.142;2022-07-23T10:37:04;13.93;;;8.32;;
21636;SDS011;10980;49.596;6.142;2022-07-23T10:40:55;14.98;;;9.02;;
21636;SDS011;10980;49.596;6.142;2022-07-23T10:44:32;15.98;;;8.63;;
21636;SDS011;10980;49.596;6.142;2022-07-23T10:52:11;12.48;;;8.48;;
21636;SDS011;10980;49.596;6.142;2022-07-23T10:58:59;15.48;;;8.95;;
21636;SDS011;10980;49.596;6.142;2022-07-23T11:02:26;16.95;;;9.18;;
21636;SDS011;10980;49.596;6.142;2022-07-23T11:05:50;13.68;;;9.50;;
21636;SDS011;10980;49.596;6.142;2022-07-23T11:09:37;12.82;;;8.70;;
21636;SDS011;10980;49.596;6.142;2022-07-23T11:16:46;17.27;;;9.38;;
21636;SDS011;10980;49.596;6.142;2022-07-23T11:27:38;16.33;;;9.85;;
21636;SDS011;10980;49.596;6.142;2022-07-23T11:31:01;13.25;;;9.30;;
21636;SDS011;10980;49.596;6.142;2022-07-23T11:34:40;17.40;;;9.27;;
21636;SDS011;10980;49.596;6.142;2022-07-23T11:38:07;14.70;;;9.60;;
21636;SDS011;10980;49.596;6.142;2022-07-23T11:41:43;19.52;;;9.57;;
21636;SDS011;10980;49.596;6.142;2022-07-23T11:45:06;16.83;;;8.27;;
21636;SDS011;10980;49.596;6.142;2022-07-23T11:48:29;11.35;;;8.75;;
21636;SDS011;10980;49.596;6.142;2022-07-23T11:52:08;12.85;;;8.45;;
21636;SDS011;10980;49.596;6.142;2022-07-23T11:55:34;10.77;;;8.63;;
21636;SDS011;10980;49.596;6.142;2022-07-23T11:58:56;14.73;;;7.82;;
21636;SDS011;10980;49.596;6.142;2022-07-23T12:02:20;11.35;;;7.75;;
21636;SDS011;10980;49.596;6.142;2022-07-23T12:05:43;14.27;;;8.20;;
21636;SDS011;10980;49.596;6.142;2022-07-23T12:09:05;13.23;;;7.85;;
21636;SDS011;10980;49.596;6.142;2022-07-23T12:12:34;12.75;;;7.75;;
21636;SDS011;10980;49.596;6.142;2022-07-23T12:15:57;13.35;;;7.40;;
21636;SDS011;10980;49.596;6.142;2022-07-23T12:19:19;11.85;;;7.72;;
21636;SDS011;10980;49.596;6.142;2022-07-23T12:22:44;12.25;;;8.50;;
21636;SDS011;10980;49.596;6.142;2022-07-23T12:26:08;19.80;;;7.90;;
21636;SDS011;10980;49.596;6.142;2022-07-23T12:29:36;21.73;;;8.25;;
21636;SDS011;10980;49.596;6.142;2022-07-23T12:32:58;15.80;;;8.30;;
21636;SDS011;10980;49.596;6.142;2022-07-23T12:36:21;11.27;;;7.60;;
21636;SDS011;10980;49.596;6.142;2022-07-23T12:40:19;18.83;;;8.00;;
21636;SDS011;10980;49.596;6.142;2022-07-23T12:43:46;12.23;;;7.72;;
21636;SDS011;10980;49.596;6.142;2022-07-23T12:47:08;12.43;;;7.32;;
21636;SDS011;10980;49.596;6.142;2022-07-23T12:54:08;9.85;;;7.05;;
21636;SDS011;10980;49.596;6.142;2022-07-23T12:57:46;12.07;;;7.90;;
21636;SDS011;10980;49.596;6.142;2022-07-23T13:01:09;10.60;;;7.00;;
21636;SDS011;10980;49.596;6.142;2022-07-23T13:04:44;8.43;;;6.60;;
21636;SDS011;10980;49.596;6.142;2022-07-23T13:08:06;11.82;;;7.15;;
21636;SDS011;10980;49.596;6.142;2022-07-23T13:11:28;10.25;;;6.70;;
21636;SDS011;10980;49.596;6.142;2022-07-23T13:14:51;9.65;;;6.25;;
21636;SDS011;10980;49.596;6.142;2022-07-23T13:18:13;7.35;;;6.20;;
21636;SDS011;10980;49.596;6.142;2022-07-23T13:21:35;8.93;;;6.60;;
21636;SDS011;10980;49.596;6.142;2022-07-23T13:24:56;11.00;;;6.63;;
21636;SDS011;10980;49.596;6.142;2022-07-23T13:28:19;27.70;;;7.75;;
21636;SDS011;10980;49.596;6.142;2022-07-23T13:31:43;15.60;;;6.95;;
21636;SDS011;10980;49.596;6.142;2022-07-23T13:35:06;15.55;;;7.88;;
21636;SDS011;10980;49.596;6.142;2022-07-23T13:38:31;12.13;;;6.68;;
21636;SDS011;10980;49.596;6.142;2022-07-23T13:41:54;11.77;;;6.40;;
21636;SDS011;10980;49.596;6.142;2022-07-23T13:45:17;8.65;;;6.57;;
21636;SDS011;10980;49.596;6.142;2022-07-23T13:48:39;10.55;;;6.72;;
21636;SDS011;10980;49.596;6.142;2022-07-23T13:52:02;9.68;;;5.97;;
21636;SDS011;10980;49.596;6.142;2022-07-23T13:55:28;11.93;;;6.53;;
21636;SDS011;10980;49.596;6.142;2022-07-23T13:58:50;13.48;;;7.50;;
21636;SDS011;10980;49.596;6.142;2022-07-23T14:02:15;10.23;;;6.63;;
21636;SDS011;10980;49.596;6.142;2022-07-23T14:05:58;13.10;;;7.32;;
21636;SDS011;10980;49.596;6.142;2022-07-23T14:09:21;9.35;;;6.40;;
21636;SDS011;10980;49.596;6.142;2022-07-23T14:12:46;9.07;;;6.97;;
21636;SDS011;10980;49.596;6.142;2022-07-23T14:16:09;9.98;;;6.53;;
21636;SDS011;10980;49.596;6.142;2022-07-23T14:19:31;9.90;;;6.45;;
21636;SDS011;10980;49.596;6.142;2022-07-23T14:22:53;9.25;;;6.38;;
21636;SDS011;10980;49.596;6.142;2022-07-23T14:26:18;8.02;;;6.07;;
21636;SDS011;10980;49.596;6.142;2022-07-23T14:29:40;14.55;;;6.03;;
21636;SDS011;10980;49.596;6.142;2022-07-23T14:33:02;12.07;;;6.43;;
21636;SDS011;10980;49.596;6.142;2022-07-23T14:36:25;7.65;;;6.07;;
21636;SDS011;10980;49.596;6.142;2022-07-23T14:39:47;17.05;;;6.30;;
21636;SDS011;10980;49.596;6.142;2022-07-23T14:43:10;9.57;;;6.72;;
21636;SDS011;10980;49.596;6.142;2022-07-23T14:46:32;8.00;;;6.50;;
21636;SDS011;10980;49.596;6.142;2022-07-23T14:49:55;11.75;;;6.60;;
21636;SDS011;10980;49.596;6.142;2022-07-23T14:53:17;12.43;;;6.13;;
21636;SDS011;10980;49.596;6.142;2022-07-23T14:56:43;9.45;;;6.07;;
21636;SDS011;10980;49.596;6.142;2022-07-23T15:00:05;11.05;;;6.43;;
21636;SDS011;10980;49.596;6.142;2022-07-23T15:03:29;8.85;;;5.90;;
21636;SDS011;10980;49.596;6.142;2022-07-23T15:07:01;7.63;;;5.68;;
21636;SDS011;10980;49.596;6.142;2022-07-23T15:10:23;7.93;;;5.72;;
21636;SDS011;10980;49.596;6.142;2022-07-23T15:13:45;7.32;;;5.32;;
21636;SDS011;10980;49.596;6.142;2022-07-23T15:17:08;6.45;;;5.15;;
21636;SDS011;10980;49.596;6.142;2022-07-23T15:20:30;9.10;;;5.40;;
21636;SDS011;10980;49.596;6.142;2022-07-23T15:24:12;11.05;;;5.22;;
21636;SDS011;10980;49.596;6.142;2022-07-23T15:27:34;9.57;;;4.93;;
21636;SDS011;10980;49.596;6.142;2022-07-23T15:30:55;7.75;;;4.85;;
21636;SDS011;10980;49.596;6.142;2022-07-23T15:34:18;8.65;;;5.28;;
21636;SDS011;10980;49.596;6.142;2022-07-23T15:37:40;7.57;;;4.70;;
21636;SDS011;10980;49.596;6.142;2022-07-23T15:41:05;6.75;;;5.13;;
21636;SDS011;10980;49.596;6.142;2022-07-23T15:44:27;7.05;;;5.18;;
21636;SDS011;10980;49.596;6.142;2022-07-23T15:47:49;11.65;;;5.25;;
21636;SDS011;10980;49.596;6.142;2022-07-23T15:51:11;10.07;;;5.18;;
21636;SDS011;10980;49.596;6.142;2022-07-23T15:54:33;7.15;;;4.93;;
21636;SDS011;10980;49.596;6.142;2022-07-23T15:57:55;9.73;;;5.28;;
21636;SDS011;10980;49.596;6.142;2022-07-23T16:01:17;6.68;;;4.68;;
21636;SDS011;10980;49.596;6.142;2022-07-23T16:04:39;7.60;;;4.55;;
21636;SDS011;10980;49.596;6.142;2022-07-23T16:08:01;5.82;;;4.57;;
21636;SDS011;10980;49.596;6.142;2022-07-23T16:11:24;6.95;;;4.47;;
21636;SDS011;10980;49.596;6.142;2022-07-23T16:14:46;8.20;;;4.50;;
21636;SDS011;10980;49.596;6.142;2022-07-23T16:18:08;7.00;;;4.38;;
21636;SDS011;10980;49.596;6.142;2022-07-23T16:21:31;7.38;;;4.25;;
21636;SDS011;10980;49.596;6.142;2022-07-23T16:24:53;7.28;;;4.22;;
21636;SDS011;10980;49.596;6.142;2022-07-23T16:28:15;5.60;;;3.95;;
21636;SDS011;10980;49.596;6.142;2022-07-23T16:31:37;5.65;;;4.10;;
21636;SDS011;10980;49.596;6.142;2022-07-23T16:35:00;7.78;;;3.67;;
21636;SDS011;10980;49.596;6.142;2022-07-23T16:38:27;7.15;;;3.65;;
21636;SDS011;10980;49.596;6.142;2022-07-23T16:41:49;7.22;;;3.78;;
21636;SDS011;10980;49.596;6.142;2022-07-23T16:45:11;7.25;;;3.92;;
21636;SDS011;10980;49.596;6.142;2022-07-23T16:48:33;6.97;;;4.07;;
21636;SDS011;10980;49.596;6.142;2022-07-23T16:51:56;10.45;;;4.68;;
21636;SDS011;10980;49.596;6.142;2022-07-23T16:55:18;4.68;;;3.83;;
21636;SDS011;10980;49.596;6.142;2022-07-23T16:58:39;6.50;;;3.95;;
21636;SDS011;10980;49.596;6.142;2022-07-23T17:02:01;6.93;;;3.72;;
21636;SDS011;10980;49.596;6.142;2022-07-23T17:05:23;6.00;;;3.90;;
21636;SDS011;10980;49.596;6.142;2022-07-23T17:08:45;6.82;;;3.97;;
21636;SDS011;10980;49.596;6.142;2022-07-23T17:12:07;6.28;;;3.72;;
21636;SDS011;10980;49.596;6.142;2022-07-23T17:15:29;8.32;;;3.78;;
21636;SDS011;10980;49.596;6.142;2022-07-23T17:18:51;4.88;;;3.75;;
21636;SDS011;10980;49.596;6.142;2022-07-23T17:22:12;8.07;;;3.70;;
21636;SDS011;10980;49.596;6.142;2022-07-23T17:25:34;7.88;;;4.05;;
21636;SDS011;10980;49.596;6.142;2022-07-23T17:28:58;7.00;;;3.88;;
21636;SDS011;10980;49.596;6.142;2022-07-23T17:32:20;6.10;;;3.83;;
21636;SDS011;10980;49.596;6.142;2022-07-23T17:35:42;5.60;;;3.95;;
21636;SDS011;10980;49.596;6.142;2022-07-23T17:39:05;8.15;;;4.40;;
21636;SDS011;10980;49.596;6.142;2022-07-23T17:42:27;8.20;;;4.28;;
21636;SDS011;10980;49.596;6.142;2022-07-23T17:45:49;5.70;;;4.18;;
21636;SDS011;10980;49.596;6.142;2022-07-23T17:49:11;6.07;;;4.13;;
21636;SDS011;10980;49.596;6.142;2022-07-23T17:52:33;10.52;;;5.07;;
21636;SDS011;10980;49.596;6.142;2022-07-23T17:56:06;8.15;;;4.45;;
21636;SDS011;10980;49.596;6.142;2022-07-23T17:59:28;7.93;;;4.40;;
21636;SDS011;10980;49.596;6.142;2022-07-23T18:02:50;7.68;;;4.60;;
21636;SDS011;10980;49.596;6.142;2022-07-23T18:06:12;6.53;;;4.70;;
21636;SDS011;10980;49.596;6.142;2022-07-23T18:09:34;11.48;;;4.88;;
21636;SDS011;10980;49.596;6.142;2022-07-23T18:12:56;6.35;;;4.38;;
21636;SDS011;10980;49.596;6.142;2022-07-23T18:16:19;10.95;;;4.53;;
21636;SDS011;10980;49.596;6.142;2022-07-23T18:19:41;9.43;;;4.93;;
21636;SDS011;10980;49.596;6.142;2022-07-23T18:23:03;7.05;;;4.55;;
21636;SDS011;10980;49.596;6.142;2022-07-23T18:26:25;7.50;;;5.07;;
21636;SDS011;10980;49.596;6.142;2022-07-23T18:29:47;7.28;;;4.70;;
21636;SDS011;10980;49.596;6.142;2022-07-23T18:33:09;9.23;;;4.80;;
21636;SDS011;10980;49.596;6.142;2022-07-23T18:36:32;6.72;;;4.35;;
21636;SDS011;10980;49.596;6.142;2022-07-23T18:39:54;10.15;;;4.28;;
21636;SDS011;10980;49.596;6.142;2022-07-23T18:43:16;6.72;;;4.65;;
21636;SDS011;10980;49.596;6.142;2022-07-23T18:46:38;6.85;;;4.55;;
21636;SDS011;10980;49.596;6.142;2022-07-23T18:50:00;11.25;;;5.38;;
21636;SDS011;10980;49.596;6.142;2022-07-23T18:53:24;14.48;;;4.82;;
21636;SDS011;10980;49.596;6.142;2022-07-23T18:56:45;8.07;;;4.70;;
21636;SDS011;10980;49.596;6.142;2022-07-23T19:00:08;8.90;;;4.82;;
21636;SDS011;10980;49.596;6.142;2022-07-23T19:03:31;8.13;;;4.63;;
21636;SDS011;10980;49.596;6.142;2022-07-23T19:06:54;11.00;;;4.60;;
21636;SDS011;10980;49.596;6.142;2022-07-23T19:10:16;7.90;;;4.90;;
21636;SDS011;10980;49.596;6.142;2022-07-23T19:13:38;10.27;;;5.00;;
21636;SDS011;10980;49.596;6.142;2022-07-23T19:17:02;8.50;;;4.65;;
21636;SDS011;10980;49.596;6.142;2022-07-23T19:20:24;9.90;;;4.40;;
21636;SDS011;10980;49.596;6.142;2022-07-23T19:23:46;13.45;;;5.03;;
21636;SDS011;10980;49.596;6.142;2022-07-23T19:27:08;11.32;;;5.00;;
21636;SDS011;10980;49.596;6.142;2022-07-23T19:30:30;12.15;;;4.70;;
21636;SDS011;10980;49.596;6.142;2022-07-23T19:33:52;11.43;;;5.32;;
21636;SDS011;10980;49.596;6.142;2022-07-23T19:37:14;10.25;;;5.03;;
21636;SDS011;10980;49.596;6.142;2022-07-23T19:40:36;9.68;;;5.05;;
21636;SDS011;10980;49.596;6.142;2022-07-23T19:43:58;8.43;;;5.35;;
21636;SDS011;10980;49.596;6.142;2022-07-23T19:47:19;10.82;;;5.40;;
21636;SDS011;10980;49.596;6.142;2022-07-23T19:50:41;17.67;;;5.72;;
21636;SDS011;10980;49.596;6.142;2022-07-23T19:54:04;14.52;;;6.18;;
21636;SDS011;10980;49.596;6.142;2022-07-23T19:57:26;12.73;;;5.70;;
21636;SDS011;10980;49.596;6.142;2022-07-23T20:00:48;12.43;;;5.80;;
21636;SDS011;10980;49.596;6.142;2022-07-23T20:04:10;8.65;;;5.28;;
21636;SDS011;10980;49.596;6.142;2022-07-23T20:07:32;9.50;;;5.40;;
21636;SDS011;10980;49.596;6.142;2022-07-23T20:10:54;9.32;;;5.55;;
21636;SDS011;10980;49.596;6.142;2022-07-23T20:14:16;8.57;;;5.05;;
21636;SDS011;10980;49.596;6.142;2022-07-23T20:17:38;10.30;;;5.07;;
21636;SDS011;10980;49.596;6.142;2022-07-23T20:21:00;13.00;;;5.72;;
21636;SDS011;10980;49.596;6.142;2022-07-23T20:24:22;10.77;;;5.75;;
21636;SDS011;10980;49.596;6.142;2022-07-23T20:27:44;9.45;;;5.43;;
21636;SDS011;10980;49.596;6.142;2022-07-23T20:31:05;9.15;;;5.10;;
21636;SDS011;10980;49.596;6.142;2022-07-23T20:34:28;10.43;;;5.40;;
21636;SDS011;10980;49.596;6.142;2022-07-23T20:37:50;9.32;;;5.13;;
21636;SDS011;10980;49.596;6.142;2022-07-23T20:41:12;8.88;;;5.55;;
21636;SDS011;10980;49.596;6.142;2022-07-23T20:44:34;9.00;;;5.20;;
21636;SDS011;10980;49.596;6.142;2022-07-23T20:47:56;7.55;;;5.15;;